Sacramento, California
Traffic Map
Current Weather Conditions
Sacramento, California
Clear
Clear
54°
Feels Like: 54°
Wind Chill: 54° Ceiling: Unl
Heat Index: 54° Visibility: 10mi
Dew Point: 50° Wind: 5mph
Humidity: 86% Direction: 320° (NW)
Pressure: 30.27in Gusts: 0mph
Raw Report DataKSAC 131653Z 32004KT 10SM CLR 12/10 A3027 RMK AO2 SLP250 T01220100
Traffic Incident Summary
Active as of:
Severity:
Category:
InformationThere was an issue retrieving the traffic information for this location. Please try a different location or try again shortly.
Advertisements
Track Severe Weather on mobile